sensor_id;sensor_type;location;lat;lon;timestamp;pressure;altitude;pressure_sealevel;temperature;humidity
12213;BME280;6169;44.158;22.788;2023-07-13T00:01:58;100882.03;;;25.16;74.40
12213;BME280;6169;44.158;22.788;2023-07-13T00:07:00;100879.38;;;25.28;72.38
12213;BME280;6169;44.158;22.788;2023-07-13T00:12:19;100876.06;;;25.35;72.10
12213;BME280;6169;44.158;22.788;2023-07-13T00:17:23;100884.88;;;25.46;73.59
12213;BME280;6169;44.158;22.788;2023-07-13T00:22:25;100876.94;;;25.09;75.64
12213;BME280;6169;44.158;22.788;2023-07-13T00:27:29;100877.13;;;25.22;74.05
12213;BME280;6169;44.158;22.788;2023-07-13T00:32:32;100875.84;;;25.02;75.09
12213;BME280;6169;44.158;22.788;2023-07-13T00:37:34;100878.91;;;25.17;74.22
12213;BME280;6169;44.158;22.788;2023-07-13T00:42:38;100877.63;;;25.06;73.89
12213;BME280;6169;44.158;22.788;2023-07-13T00:47:41;100876.31;;;25.04;73.12
12213;BME280;6169;44.158;22.788;2023-07-13T00:52:45;100870.63;;;24.91;73.41
12213;BME280;6169;44.158;22.788;2023-07-13T00:57:50;100872.25;;;24.92;73.79
12213;BME280;6169;44.158;22.788;2023-07-13T01:02:52;100871.47;;;24.83;74.20
12213;BME280;6169;44.158;22.788;2023-07-13T01:07:54;100868.50;;;24.54;75.02
12213;BME280;6169;44.158;22.788;2023-07-13T01:12:58;100862.78;;;24.93;73.68
12213;BME280;6169;44.158;22.788;2023-07-13T01:18:01;100858.81;;;25.03;72.02
12213;BME280;6169;44.158;22.788;2023-07-13T01:23:07;100852.97;;;24.87;72.66
12213;BME280;6169;44.158;22.788;2023-07-13T01:28:09;100845.25;;;24.93;72.64
12213;BME280;6169;44.158;22.788;2023-07-13T01:33:12;100859.66;;;24.95;72.57
12213;BME280;6169;44.158;22.788;2023-07-13T01:38:17;100846.47;;;24.75;72.81
12213;BME280;6169;44.158;22.788;2023-07-13T01:43:19;100838.69;;;25.06;71.65
12213;BME280;6169;44.158;22.788;2023-07-13T01:48:21;100840.56;;;24.67;73.65
12213;BME280;6169;44.158;22.788;2023-07-13T01:53:25;100835.34;;;24.57;75.01
12213;BME280;6169;44.158;22.788;2023-07-13T01:58:27;100844.03;;;24.30;75.96
12213;BME280;6169;44.158;22.788;2023-07-13T02:03:29;100844.81;;;24.13;76.94
12213;BME280;6169;44.158;22.788;2023-07-13T02:08:33;100844.16;;;24.77;73.39
12213;BME280;6169;44.158;22.788;2023-07-13T02:13:36;100841.06;;;24.61;73.76
12213;BME280;6169;44.158;22.788;2023-07-13T02:18:38;100846.63;;;24.69;73.15
12213;BME280;6169;44.158;22.788;2023-07-13T02:23:41;100852.69;;;24.45;73.82
12213;BME280;6169;44.158;22.788;2023-07-13T02:28:43;100859.19;;;24.76;71.86
12213;BME280;6169;44.158;22.788;2023-07-13T02:33:46;100869.34;;;24.71;72.62
12213;BME280;6169;44.158;22.788;2023-07-13T02:38:50;100876.03;;;24.88;71.68
12213;BME280;6169;44.158;22.788;2023-07-13T02:43:53;100872.94;;;24.55;72.84
12213;BME280;6169;44.158;22.788;2023-07-13T02:48:55;100872.75;;;24.42;73.42
12213;BME280;6169;44.158;22.788;2023-07-13T02:53:58;100887.00;;;24.49;72.95
12213;BME280;6169;44.158;22.788;2023-07-13T02:59:01;100889.63;;;24.81;70.83
12213;BME280;6169;44.158;22.788;2023-07-13T03:04:03;100892.56;;;24.76;70.23
12213;BME280;6169;44.158;22.788;2023-07-13T03:09:07;100881.63;;;24.79;69.71
12213;BME280;6169;44.158;22.788;2023-07-13T03:14:09;100882.91;;;24.64;70.69
12213;BME280;6169;44.158;22.788;2023-07-13T03:19:12;100894.38;;;24.54;71.19
12213;BME280;6169;44.158;22.788;2023-07-13T03:24:15;100874.06;;;24.88;69.36
12213;BME280;6169;44.158;22.788;2023-07-13T03:29:18;100872.63;;;24.82;70.20
12213;BME280;6169;44.158;22.788;2023-07-13T03:34:20;100862.44;;;24.86;69.90
12213;BME280;6169;44.158;22.788;2023-07-13T03:39:23;100877.78;;;25.57;66.13
12213;BME280;6169;44.158;22.788;2023-07-13T03:44:26;100888.72;;;26.00;64.58
12213;BME280;6169;44.158;22.788;2023-07-13T03:49:28;100895.91;;;26.22;63.27
12213;BME280;6169;44.158;22.788;2023-07-13T03:54:31;100902.16;;;25.98;63.65
12213;BME280;6169;44.158;22.788;2023-07-13T03:59:33;100890.59;;;25.49;66.70
12213;BME280;6169;44.158;22.788;2023-07-13T04:04:36;100894.97;;;25.97;65.84
12213;BME280;6169;44.158;22.788;2023-07-13T04:09:42;100888.72;;;26.00;66.12
12213;BME280;6169;44.158;22.788;2023-07-13T04:14:45;100896.78;;;25.93;66.54
12213;BME280;6169;44.158;22.788;2023-07-13T04:19:47;100903.50;;;25.92;68.31
12213;BME280;6169;44.158;22.788;2023-07-13T04:24:51;100896.28;;;25.91;66.63
12213;BME280;6169;44.158;22.788;2023-07-13T04:29:53;100899.91;;;25.92;67.44
12213;BME280;6169;44.158;22.788;2023-07-13T04:34:55;100905.00;;;26.40;65.68
12213;BME280;6169;44.158;22.788;2023-07-13T04:40:01;100911.16;;;26.67;63.89
12213;BME280;6169;44.158;22.788;2023-07-13T04:45:05;100921.25;;;26.38;64.85
12213;BME280;6169;44.158;22.788;2023-07-13T04:50:09;100920.44;;;26.38;65.37
12213;BME280;6169;44.158;22.788;2023-07-13T04:55:13;100915.84;;;26.75;62.95
12213;BME280;6169;44.158;22.788;2023-07-13T05:00:16;100928.66;;;27.09;63.81
12213;BME280;6169;44.158;22.788;2023-07-13T05:05:18;100930.06;;;26.82;65.50
12213;BME280;6169;44.158;22.788;2023-07-13T05:10:22;100928.03;;;26.91;62.53
12213;BME280;6169;44.158;22.788;2023-07-13T05:15:24;100939.19;;;26.91;62.34
12213;BME280;6169;44.158;22.788;2023-07-13T05:20:27;100933.75;;;26.74;61.36
12213;BME280;6169;44.158;22.788;2023-07-13T05:25:30;100929.38;;;26.85;61.05
12213;BME280;6169;44.158;22.788;2023-07-13T05:30:32;100922.47;;;26.91;60.76
12213;BME280;6169;44.158;22.788;2023-07-13T05:35:35;100926.19;;;27.41;58.45
12213;BME280;6169;44.158;22.788;2023-07-13T05:40:38;100930.78;;;27.58;57.61
12213;BME280;6169;44.158;22.788;2023-07-13T05:45:40;100922.63;;;27.65;57.17
12213;BME280;6169;44.158;22.788;2023-07-13T05:50:43;100926.56;;;27.52;57.63
12213;BME280;6169;44.158;22.788;2023-07-13T05:55:47;100934.50;;;27.74;57.11
12213;BME280;6169;44.158;22.788;2023-07-13T06:00:59;100918.44;;;27.71;59.42
12213;BME280;6169;44.158;22.788;2023-07-13T06:06:02;100914.72;;;27.67;59.60
12213;BME280;6169;44.158;22.788;2023-07-13T06:11:07;100909.81;;;28.25;56.66
12213;BME280;6169;44.158;22.788;2023-07-13T06:16:12;100905.38;;;28.24;58.04
12213;BME280;6169;44.158;22.788;2023-07-13T06:21:16;100914.03;;;27.70;60.50
12213;BME280;6169;44.158;22.788;2023-07-13T06:26:20;100918.97;;;28.38;57.33
12213;BME280;6169;44.158;22.788;2023-07-13T06:31:23;100914.19;;;28.79;53.93
12213;BME280;6169;44.158;22.788;2023-07-13T06:36:25;100921.50;;;28.56;56.77
12213;BME280;6169;44.158;22.788;2023-07-13T06:41:28;100923.91;;;28.17;57.02
12213;BME280;6169;44.158;22.788;2023-07-13T06:46:31;100944.88;;;28.23;57.96
12213;BME280;6169;44.158;22.788;2023-07-13T06:51:33;100929.75;;;28.12;57.37
12213;BME280;6169;44.158;22.788;2023-07-13T06:56:37;100934.28;;;28.04;59.06
12213;BME280;6169;44.158;22.788;2023-07-13T07:01:39;100944.38;;;28.33;58.12
12213;BME280;6169;44.158;22.788;2023-07-13T07:06:41;100960.91;;;28.38;58.34
12213;BME280;6169;44.158;22.788;2023-07-13T07:11:44;100975.44;;;28.68;52.66
12213;BME280;6169;44.158;22.788;2023-07-13T07:16:47;100964.25;;;28.97;47.57
12213;BME280;6169;44.158;22.788;2023-07-13T07:21:49;100975.88;;;29.11;48.52
12213;BME280;6169;44.158;22.788;2023-07-13T07:26:52;100970.88;;;29.48;47.38
12213;BME280;6169;44.158;22.788;2023-07-13T07:31:54;100987.50;;;29.41;50.58
12213;BME280;6169;44.158;22.788;2023-07-13T07:36:59;100973.34;;;29.97;51.12
12213;BME280;6169;44.158;22.788;2023-07-13T07:42:03;100973.59;;;30.08;52.88
12213;BME280;6169;44.158;22.788;2023-07-13T07:47:06;100956.03;;;30.11;52.36
12213;BME280;6169;44.158;22.788;2023-07-13T07:52:08;100953.53;;;30.41;50.79
12213;BME280;6169;44.158;22.788;2023-07-13T07:57:12;100949.44;;;30.74;48.62
12213;BME280;6169;44.158;22.788;2023-07-13T08:02:14;100959.13;;;30.77;48.57
12213;BME280;6169;44.158;22.788;2023-07-13T08:07:16;100958.16;;;30.88;47.80
12213;BME280;6169;44.158;22.788;2023-07-13T08:12:20;100954.59;;;31.53;44.25
12213;BME280;6169;44.158;22.788;2023-07-13T08:17:22;100948.25;;;31.14;43.41
12213;BME280;6169;44.158;22.788;2023-07-13T08:22:24;100945.69;;;31.51;43.15
12213;BME280;6169;44.158;22.788;2023-07-13T08:27:28;100913.44;;;31.65;39.78
12213;BME280;6169;44.158;22.788;2023-07-13T08:32:30;100943.75;;;32.01;39.13
12213;BME280;6169;44.158;22.788;2023-07-13T08:37:33;100941.81;;;31.83;38.19
12213;BME280;6169;44.158;22.788;2023-07-13T08:42:39;100916.66;;;32.16;37.86
12213;BME280;6169;44.158;22.788;2023-07-13T08:47:47;100905.69;;;33.02;37.45
12213;BME280;6169;44.158;22.788;2023-07-13T08:52:55;100900.16;;;33.57;35.46
12213;BME280;6169;44.158;22.788;2023-07-13T08:58:05;100909.78;;;33.52;35.23
12213;BME280;6169;44.158;22.788;2023-07-13T09:03:19;100905.50;;;33.69;33.82
12213;BME280;6169;44.158;22.788;2023-07-13T09:08:36;100916.25;;;34.12;31.92
12213;BME280;6169;44.158;22.788;2023-07-13T09:13:48;100906.19;;;33.55;32.44
12213;BME280;6169;44.158;22.788;2023-07-13T09:18:58;100901.56;;;33.37;30.42
12213;BME280;6169;44.158;22.788;2023-07-13T09:24:22;100894.25;;;33.80;30.57
12213;BME280;6169;44.158;22.788;2023-07-13T09:29:33;100881.19;;;34.06;32.18
12213;BME280;6169;44.158;22.788;2023-07-13T09:34:35;100863.28;;;34.57;29.90
12213;BME280;6169;44.158;22.788;2023-07-13T09:39:39;100862.56;;;34.88;31.11
12213;BME280;6169;44.158;22.788;2023-07-13T09:44:52;100854.47;;;34.76;29.88
12213;BME280;6169;44.158;22.788;2023-07-13T09:49:55;100851.56;;;34.51;30.64
12213;BME280;6169;44.158;22.788;2023-07-13T09:54:59;100843.09;;;34.58;30.47
12213;BME280;6169;44.158;22.788;2023-07-13T10:00:03;100848.03;;;35.11;28.97
12213;BME280;6169;44.158;22.788;2023-07-13T10:05:09;100831.91;;;34.80;27.97
12213;BME280;6169;44.158;22.788;2023-07-13T10:10:15;100839.22;;;35.27;27.74
12213;BME280;6169;44.158;22.788;2023-07-13T10:15:21;100835.16;;;35.10;28.35
12213;BME280;6169;44.158;22.788;2023-07-13T10:20:26;100839.50;;;34.72;26.81
12213;BME280;6169;44.158;22.788;2023-07-13T10:25:32;100828.25;;;35.01;26.55
12213;BME280;6169;44.158;22.788;2023-07-13T10:30:40;100820.59;;;34.80;25.84
12213;BME280;6169;44.158;22.788;2023-07-13T10:35:44;100812.50;;;35.71;27.65
12213;BME280;6169;44.158;22.788;2023-07-13T10:40:54;100822.94;;;35.92;25.89
12213;BME280;6169;44.158;22.788;2023-07-13T10:46:00;100818.88;;;35.93;25.95
12213;BME280;6169;44.158;22.788;2023-07-13T10:51:05;100807.56;;;35.97;26.84
12213;BME280;6169;44.158;22.788;2023-07-13T10:56:22;100809.25;;;36.64;26.40
12213;BME280;6169;44.158;22.788;2023-07-13T11:01:27;100810.75;;;36.13;26.83
12213;BME280;6169;44.158;22.788;2023-07-13T11:06:41;100806.41;;;36.72;25.83
12213;BME280;6169;44.158;22.788;2023-07-13T11:11:45;100804.53;;;36.51;25.50
12213;BME280;6169;44.158;22.788;2023-07-13T11:16:49;100806.72;;;36.81;25.98
12213;BME280;6169;44.158;22.788;2023-07-13T11:22:10;100802.28;;;37.36;25.70
12213;BME280;6169;44.158;22.788;2023-07-13T11:27:22;100797.81;;;37.31;24.88
12213;BME280;6169;44.158;22.788;2023-07-13T11:32:31;100784.91;;;36.78;23.29
12213;BME280;6169;44.158;22.788;2023-07-13T11:37:33;100783.47;;;37.07;23.59
12213;BME280;6169;44.158;22.788;2023-07-13T11:42:36;100787.28;;;36.83;23.16
12213;BME280;6169;44.158;22.788;2023-07-13T11:47:42;100781.84;;;37.06;22.68
12213;BME280;6169;44.158;22.788;2023-07-13T11:52:45;100778.97;;;37.14;24.15
12213;BME280;6169;44.158;22.788;2023-07-13T11:57:50;100769.47;;;37.31;24.62
12213;BME280;6169;44.158;22.788;2023-07-13T12:02:57;100754.38;;;37.45;24.67
12213;BME280;6169;44.158;22.788;2023-07-13T12:08:09;100762.50;;;37.77;23.56
12213;BME280;6169;44.158;22.788;2023-07-13T12:13:11;100759.69;;;37.77;22.58
12213;BME280;6169;44.158;22.788;2023-07-13T12:18:19;100762.66;;;37.97;23.48
12213;BME280;6169;44.158;22.788;2023-07-13T12:23:24;100747.31;;;37.94;23.52
12213;BME280;6169;44.158;22.788;2023-07-13T12:28:32;100745.03;;;38.13;22.84
12213;BME280;6169;44.158;22.788;2023-07-13T12:33:39;100733.78;;;37.71;22.55
12213;BME280;6169;44.158;22.788;2023-07-13T12:38:44;100737.03;;;37.73;22.82
12213;BME280;6169;44.158;22.788;2023-07-13T12:43:48;100724.72;;;38.18;22.53
12213;BME280;6169;44.158;22.788;2023-07-13T12:48:53;100717.00;;;38.93;22.25
12213;BME280;6169;44.158;22.788;2023-07-13T12:53:58;100712.22;;;39.33;22.43
12213;BME280;6169;44.158;22.788;2023-07-13T12:59:15;100713.50;;;38.61;22.35
12213;BME280;6169;44.158;22.788;2023-07-13T13:04:20;100710.09;;;38.70;22.70
12213;BME280;6169;44.158;22.788;2023-07-13T13:09:23;100700.81;;;38.42;21.89
12213;BME280;6169;44.158;22.788;2023-07-13T13:14:26;100701.28;;;38.88;21.21
12213;BME280;6169;44.158;22.788;2023-07-13T13:19:29;100701.44;;;39.64;22.54
12213;BME280;6169;44.158;22.788;2023-07-13T13:24:32;100696.16;;;38.79;21.60
12213;BME280;6169;44.158;22.788;2023-07-13T13:29:36;100697.78;;;39.24;20.48
12213;BME280;6169;44.158;22.788;2023-07-13T13:34:42;100692.63;;;38.95;22.23
12213;BME280;6169;44.158;22.788;2023-07-13T13:39:45;100684.59;;;38.90;21.89
12213;BME280;6169;44.158;22.788;2023-07-13T13:44:47;100678.09;;;39.33;21.52
12213;BME280;6169;44.158;22.788;2023-07-13T13:49:51;100678.03;;;39.57;21.40
12213;BME280;6169;44.158;22.788;2023-07-13T13:54:53;100673.72;;;39.28;21.37
12213;BME280;6169;44.158;22.788;2023-07-13T13:59:56;100677.03;;;40.03;21.20
12213;BME280;6169;44.158;22.788;2023-07-13T14:05:02;100665.13;;;39.72;21.37
12213;BME280;6169;44.158;22.788;2023-07-13T14:10:12;100648.34;;;39.58;20.49
12213;BME280;6169;44.158;22.788;2023-07-13T14:15:19;100641.63;;;39.68;21.21
12213;BME280;6169;44.158;22.788;2023-07-13T14:20:25;100641.00;;;40.13;21.68
12213;BME280;6169;44.158;22.788;2023-07-13T14:25:28;100630.25;;;39.68;21.56
12213;BME280;6169;44.158;22.788;2023-07-13T14:30:30;100636.13;;;40.13;21.92
12213;BME280;6169;44.158;22.788;2023-07-13T14:35:34;100635.38;;;39.93;20.97
12213;BME280;6169;44.158;22.788;2023-07-13T14:40:36;100642.25;;;39.39;21.52
12213;BME280;6169;44.158;22.788;2023-07-13T14:45:40;100636.09;;;39.61;20.87
12213;BME280;6169;44.158;22.788;2023-07-13T14:50:44;100642.81;;;39.30;21.68
12213;BME280;6169;44.158;22.788;2023-07-13T14:55:47;100638.50;;;39.62;21.51
12213;BME280;6169;44.158;22.788;2023-07-13T15:00:49;100639.63;;;39.48;21.60
12213;BME280;6169;44.158;22.788;2023-07-13T15:05:57;100642.84;;;38.87;20.57
12213;BME280;6169;44.158;22.788;2023-07-13T15:10:59;100642.53;;;38.81;22.14
12213;BME280;6169;44.158;22.788;2023-07-13T15:16:02;100646.00;;;38.46;21.23
12213;BME280;6169;44.158;22.788;2023-07-13T15:21:09;100644.38;;;38.21;21.95
12213;BME280;6169;44.158;22.788;2023-07-13T15:26:15;100639.47;;;39.16;22.94
12213;BME280;6169;44.158;22.788;2023-07-13T15:31:21;100642.09;;;38.83;22.29
12213;BME280;6169;44.158;22.788;2023-07-13T15:36:25;100634.31;;;38.87;23.21
12213;BME280;6169;44.158;22.788;2023-07-13T15:41:28;100627.00;;;38.66;23.56
12213;BME280;6169;44.158;22.788;2023-07-13T15:46:30;100629.97;;;38.59;23.52
12213;BME280;6169;44.158;22.788;2023-07-13T15:51:34;100624.56;;;38.41;24.65
12213;BME280;6169;44.158;22.788;2023-07-13T15:56:37;100625.25;;;38.72;23.90
12213;BME280;6169;44.158;22.788;2023-07-13T16:01:41;100620.69;;;38.78;24.59
12213;BME280;6169;44.158;22.788;2023-07-13T16:06:49;100625.16;;;38.56;24.93
12213;BME280;6169;44.158;22.788;2023-07-13T16:11:51;100462.06;;;37.39;25.62
12213;BME280;6169;44.158;22.788;2023-07-13T16:16:56;100619.56;;;38.25;26.06
12213;BME280;6169;44.158;22.788;2023-07-13T16:22:00;100619.63;;;38.22;26.74
12213;BME280;6169;44.158;22.788;2023-07-13T16:27:08;100612.03;;;38.38;26.62
12213;BME280;6169;44.158;22.788;2023-07-13T16:32:12;100616.94;;;38.14;27.33
12213;BME280;6169;44.158;22.788;2023-07-13T16:37:18;100621.09;;;38.06;27.60
12213;BME280;6169;44.158;22.788;2023-07-13T16:42:21;100632.22;;;37.93;29.24
12213;BME280;6169;44.158;22.788;2023-07-13T16:47:24;100628.06;;;37.71;29.48
12213;BME280;6169;44.158;22.788;2023-07-13T16:52:28;100618.63;;;37.16;29.51
12213;BME280;6169;44.158;22.788;2023-07-13T16:57:31;100626.47;;;37.05;29.77
12213;BME280;6169;44.158;22.788;2023-07-13T17:02:35;100631.81;;;36.47;30.48
12213;BME280;6169;44.158;22.788;2023-07-13T17:07:40;100629.00;;;35.91;31.39
12213;BME280;6169;44.158;22.788;2023-07-13T17:12:43;100625.28;;;36.09;32.37
12213;BME280;6169;44.158;22.788;2023-07-13T17:17:47;100624.66;;;35.76;32.39
12213;BME280;6169;44.158;22.788;2023-07-13T17:22:53;100620.53;;;35.88;33.85
12213;BME280;6169;44.158;22.788;2023-07-13T17:27:55;100625.09;;;35.67;34.38
12213;BME280;6169;44.158;22.788;2023-07-13T17:32:58;100621.94;;;35.51;34.18
12213;BME280;6169;44.158;22.788;2023-07-13T17:38:03;100613.63;;;34.97;34.96
12213;BME280;6169;44.158;22.788;2023-07-13T17:43:06;100605.63;;;34.53;35.45
12213;BME280;6169;44.158;22.788;2023-07-13T17:48:09;100611.66;;;34.33;35.78
12213;BME280;6169;44.158;22.788;2023-07-13T17:53:16;100623.72;;;34.09;36.72
12213;BME280;6169;44.158;22.788;2023-07-13T17:58:18;100629.75;;;33.93;36.59
12213;BME280;6169;44.158;22.788;2023-07-13T18:03:23;100622.78;;;33.65;38.56
12213;BME280;6169;44.158;22.788;2023-07-13T18:08:33;100634.31;;;33.31;39.44
12213;BME280;6169;44.158;22.788;2023-07-13T18:13:36;100629.78;;;33.12;39.96
12213;BME280;6169;44.158;22.788;2023-07-13T18:18:41;100652.72;;;33.15;38.82
12213;BME280;6169;44.158;22.788;2023-07-13T18:23:45;100645.47;;;33.10;39.37
12213;BME280;6169;44.158;22.788;2023-07-13T18:28:47;100651.31;;;32.87;39.53
12213;BME280;6169;44.158;22.788;2023-07-13T18:33:52;100645.94;;;32.64;40.62
12213;BME280;6169;44.158;22.788;2023-07-13T18:38:57;100650.03;;;32.74;40.95
12213;BME280;6169;44.158;22.788;2023-07-13T18:44:00;100648.47;;;32.35;41.54
12213;BME280;6169;44.158;22.788;2023-07-13T18:49:03;100656.50;;;31.96;40.21
12213;BME280;6169;44.158;22.788;2023-07-13T18:54:11;100661.03;;;31.70;41.02
12213;BME280;6169;44.158;22.788;2023-07-13T18:59:14;100662.22;;;31.69;41.76
12213;BME280;6169;44.158;22.788;2023-07-13T19:04:26;100666.19;;;31.65;42.03
12213;BME280;6169;44.158;22.788;2023-07-13T19:09:30;100657.66;;;31.27;42.44
12213;BME280;6169;44.158;22.788;2023-07-13T19:14:33;100657.22;;;30.99;42.98
12213;BME280;6169;44.158;22.788;2023-07-13T19:19:36;100657.88;;;31.15;42.91
12213;BME280;6169;44.158;22.788;2023-07-13T19:24:40;100651.91;;;31.47;42.92
12213;BME280;6169;44.158;22.788;2023-07-13T19:29:42;100635.03;;;31.17;44.34
12213;BME280;6169;44.158;22.788;2023-07-13T19:34:44;100632.59;;;31.15;44.24
12213;BME280;6169;44.158;22.788;2023-07-13T19:39:48;100648.16;;;30.82;45.65
12213;BME280;6169;44.158;22.788;2023-07-13T19:44:54;100658.03;;;30.99;45.02
12213;BME280;6169;44.158;22.788;2023-07-13T19:49:57;100662.44;;;30.74;45.92
12213;BME280;6169;44.158;22.788;2023-07-13T19:55:04;100653.59;;;30.72;46.28
12213;BME280;6169;44.158;22.788;2023-07-13T20:00:15;100520.56;;;29.77;46.26
12213;BME280;6169;44.158;22.788;2023-07-13T20:05:19;100659.41;;;30.59;45.80
12213;BME280;6169;44.158;22.788;2023-07-13T20:10:25;100665.34;;;30.12;47.16
12213;BME280;6169;44.158;22.788;2023-07-13T20:15:31;100655.59;;;30.06;47.12
12213;BME280;6169;44.158;22.788;2023-07-13T20:20:35;100639.47;;;30.45;47.94
12213;BME280;6169;44.158;22.788;2023-07-13T20:25:47;100622.38;;;30.27;48.28
12213;BME280;6169;44.158;22.788;2023-07-13T20:30:50;100624.97;;;29.97;49.38
12213;BME280;6169;44.158;22.788;2023-07-13T20:35:55;100613.09;;;29.80;49.05
12213;BME280;6169;44.158;22.788;2023-07-13T20:41:03;100615.22;;;29.48;49.87
12213;BME280;6169;44.158;22.788;2023-07-13T20:46:12;100597.66;;;29.51;50.50
12213;BME280;6169;44.158;22.788;2023-07-13T20:51:15;100599.50;;;29.83;48.75
12213;BME280;6169;44.158;22.788;2023-07-13T20:56:21;100606.06;;;29.32;50.32
12213;BME280;6169;44.158;22.788;2023-07-13T21:01:27;100593.19;;;28.92;51.80
12213;BME280;6169;44.158;22.788;2023-07-13T21:06:30;100592.44;;;28.95;50.90
12213;BME280;6169;44.158;22.788;2023-07-13T21:11:35;100591.38;;;28.84;51.32
12213;BME280;6169;44.158;22.788;2023-07-13T21:16:37;100592.03;;;28.93;51.49
12213;BME280;6169;44.158;22.788;2023-07-13T21:21:40;100587.38;;;29.01;51.20
12213;BME280;6169;44.158;22.788;2023-07-13T21:26:43;100596.09;;;28.80;51.99
12213;BME280;6169;44.158;22.788;2023-07-13T21:31:45;100585.66;;;28.77;52.37
12213;BME280;6169;44.158;22.788;2023-07-13T21:36:48;100604.50;;;28.64;59.64
12213;BME280;6169;44.158;22.788;2023-07-13T21:41:53;100611.44;;;28.86;58.67
12213;BME280;6169;44.158;22.788;2023-07-13T21:46:55;100605.03;;;29.21;57.46
12213;BME280;6169;44.158;22.788;2023-07-13T21:51:57;100612.03;;;28.95;57.74
12213;BME280;6169;44.158;22.788;2023-07-13T21:57:01;100632.59;;;29.03;56.56
12213;BME280;6169;44.158;22.788;2023-07-13T22:02:03;100661.97;;;28.61;59.41
12213;BME280;6169;44.158;22.788;2023-07-13T22:07:09;100661.66;;;27.91;62.92
12213;BME280;6169;44.158;22.788;2023-07-13T22:12:13;100638.41;;;28.15;63.47
12213;BME280;6169;44.158;22.788;2023-07-13T22:17:15;100651.97;;;28.60;62.35
12213;BME280;6169;44.158;22.788;2023-07-13T22:22:17;100641.94;;;28.75;61.32
12213;BME280;6169;44.158;22.788;2023-07-13T22:27:23;100607.22;;;28.76;60.44
12213;BME280;6169;44.158;22.788;2023-07-13T22:32:34;100607.84;;;28.38;61.49
12213;BME280;6169;44.158;22.788;2023-07-13T22:37:38;100624.97;;;28.20;62.73
12213;BME280;6169;44.158;22.788;2023-07-13T22:42:51;100623.78;;;28.06;63.98
12213;BME280;6169;44.158;22.788;2023-07-13T22:47:55;100627.00;;;27.92;65.11
12213;BME280;6169;44.158;22.788;2023-07-13T22:52:58;100624.25;;;28.23;63.29
12213;BME280;6169;44.158;22.788;2023-07-13T22:58:04;100636.25;;;28.24;62.70
12213;BME280;6169;44.158;22.788;2023-07-13T23:03:09;100647.34;;;27.64;64.97
12213;BME280;6169;44.158;22.788;2023-07-13T23:08:22;100613.06;;;28.08;62.91
12213;BME280;6169;44.158;22.788;2023-07-13T23:13:35;100604.53;;;27.60;65.63
12213;BME280;6169;44.158;22.788;2023-07-13T23:18:38;100619.41;;;27.92;64.08
12213;BME280;6169;44.158;22.788;2023-07-13T23:23:42;100624.31;;;27.67;64.96
12213;BME280;6169;44.158;22.788;2023-07-13T23:28:47;100630.00;;;27.30;66.91
12213;BME280;6169;44.158;22.788;2023-07-13T23:33:50;100657.75;;;27.39;66.70
12213;BME280;6169;44.158;22.788;2023-07-13T23:38:53;100656.84;;;27.47;66.53
12213;BME280;6169;44.158;22.788;2023-07-13T23:43:56;100669.50;;;27.32;67.26
12213;BME280;6169;44.158;22.788;2023-07-13T23:49:01;100675.81;;;26.80;70.31
12213;BME280;6169;44.158;22.788;2023-07-13T23:54:09;100678.34;;;26.61;70.64
12213;BME280;6169;44.158;22.788;2023-07-13T23:59:14;100680.81;;;26.62;70.36
